sensor_id;sensor_type;location;lat;lon;timestamp;temperature;humidity
43346;DHT22;28937;51.160;4.146;2023-03-01T00:01:28;7.60;70.80
43346;DHT22;28937;51.160;4.146;2023-03-01T00:03:56;7.50;70.90
43346;DHT22;28937;51.160;4.146;2023-03-01T00:06:22;7.50;71.10
43346;DHT22;28937;51.160;4.146;2023-03-01T00:08:48;7.50;71.50
43346;DHT22;28937;51.160;4.146;2023-03-01T00:13:39;7.50;71.50
43346;DHT22;28937;51.160;4.146;2023-03-01T00:16:08;7.50;71.40
43346;DHT22;28937;51.160;4.146;2023-03-01T00:18:34;7.50;71.30
43346;DHT22;28937;51.160;4.146;2023-03-01T00:21:00;7.50;71.20
43346;DHT22;28937;51.160;4.146;2023-03-01T00:23:26;7.50;71.20
43346;DHT22;28937;51.160;4.146;2023-03-01T00:25:52;7.50;71.50
43346;DHT22;28937;51.160;4.146;2023-03-01T00:28:18;7.50;71.80
43346;DHT22;28937;51.160;4.146;2023-03-01T00:30:44;7.50;71.70
43346;DHT22;28937;51.160;4.146;2023-03-01T00:33:10;7.40;71.80
43346;DHT22;28937;51.160;4.146;2023-03-01T00:35:38;7.40;71.80
43346;DHT22;28937;51.160;4.146;2023-03-01T00:38:05;7.40;71.90
43346;DHT22;28937;51.160;4.146;2023-03-01T00:40:33;7.40;72.30
43346;DHT22;28937;51.160;4.146;2023-03-01T00:42:59;7.40;72.30
43346;DHT22;28937;51.160;4.146;2023-03-01T00:45:24;7.40;72.20
43346;DHT22;28937;51.160;4.146;2023-03-01T00:47:51;7.30;72.30
43346;DHT22;28937;51.160;4.146;2023-03-01T00:50:17;7.30;72.20
43346;DHT22;28937;51.160;4.146;2023-03-01T00:52:43;7.30;72.30
43346;DHT22;28937;51.160;4.146;2023-03-01T00:55:09;7.40;72.50
43346;DHT22;28937;51.160;4.146;2023-03-01T00:57:35;7.40;72.40
43346;DHT22;28937;51.160;4.146;2023-03-01T01:00:01;7.30;72.70
43346;DHT22;28937;51.160;4.146;2023-03-01T01:02:26;7.30;72.50
43346;DHT22;28937;51.160;4.146;2023-03-01T01:04:52;7.30;72.90
43346;DHT22;28937;51.160;4.146;2023-03-01T01:07:18;7.20;72.60
43346;DHT22;28937;51.160;4.146;2023-03-01T01:09:45;7.30;73.00
43346;DHT22;28937;51.160;4.146;2023-03-01T01:12:11;7.20;73.20
43346;DHT22;28937;51.160;4.146;2023-03-01T01:14:37;7.30;73.20
43346;DHT22;28937;51.160;4.146;2023-03-01T01:17:02;7.30;73.10
43346;DHT22;28937;51.160;4.146;2023-03-01T01:19:28;7.30;72.90
43346;DHT22;28937;51.160;4.146;2023-03-01T01:21:53;7.30;73.40
43346;DHT22;28937;51.160;4.146;2023-03-01T01:24:19;7.20;73.50
43346;DHT22;28937;51.160;4.146;2023-03-01T01:26:45;7.30;73.60
43346;DHT22;28937;51.160;4.146;2023-03-01T01:29:11;7.30;73.40
43346;DHT22;28937;51.160;4.146;2023-03-01T01:31:39;7.30;73.70
43346;DHT22;28937;51.160;4.146;2023-03-01T01:34:06;7.30;73.70
43346;DHT22;28937;51.160;4.146;2023-03-01T01:36:33;7.30;73.70
43346;DHT22;28937;51.160;4.146;2023-03-01T01:38:59;7.30;73.60
43346;DHT22;28937;51.160;4.146;2023-03-01T01:41:26;7.30;73.50
43346;DHT22;28937;51.160;4.146;2023-03-01T01:44:20;7.30;73.60
43346;DHT22;28937;51.160;4.146;2023-03-01T01:47:05;7.30;73.50
43346;DHT22;28937;51.160;4.146;2023-03-01T01:49:44;7.30;73.70
43346;DHT22;28937;51.160;4.146;2023-03-01T01:57:39;7.20;74.30
43346;DHT22;28937;51.160;4.146;2023-03-01T02:00:06;7.20;74.40
43346;DHT22;28937;51.160;4.146;2023-03-01T02:02:33;7.20;74.30
43346;DHT22;28937;51.160;4.146;2023-03-01T02:05:06;7.20;74.60
43346;DHT22;28937;51.160;4.146;2023-03-01T02:07:38;7.20;74.80
43346;DHT22;28937;51.160;4.146;2023-03-01T02:10:05;7.10;74.70
43346;DHT22;28937;51.160;4.146;2023-03-01T02:12:31;7.10;74.80
43346;DHT22;28937;51.160;4.146;2023-03-01T02:14:57;7.10;74.80
43346;DHT22;28937;51.160;4.146;2023-03-01T02:17:23;7.10;74.90
43346;DHT22;28937;51.160;4.146;2023-03-01T02:20:08;7.00;75.10
43346;DHT22;28937;51.160;4.146;2023-03-01T02:22:38;7.00;75.20
43346;DHT22;28937;51.160;4.146;2023-03-01T02:30:29;7.10;75.40
43346;DHT22;28937;51.160;4.146;2023-03-01T02:32:57;7.00;75.70
43346;DHT22;28937;51.160;4.146;2023-03-01T02:35:31;7.00;75.80
43346;DHT22;28937;51.160;4.146;2023-03-01T02:37:58;7.00;75.90
43346;DHT22;28937;51.160;4.146;2023-03-01T02:40:28;7.00;76.20
43346;DHT22;28937;51.160;4.146;2023-03-01T02:42:56;7.00;76.00
43346;DHT22;28937;51.160;4.146;2023-03-01T02:45:22;6.90;76.20
43346;DHT22;28937;51.160;4.146;2023-03-01T02:47:49;6.90;76.50
43346;DHT22;28937;51.160;4.146;2023-03-01T02:53:15;6.90;76.60
43346;DHT22;28937;51.160;4.146;2023-03-01T02:55:42;6.90;76.60
43346;DHT22;28937;51.160;4.146;2023-03-01T02:58:07;6.80;76.70
43346;DHT22;28937;51.160;4.146;2023-03-01T03:00:39;6.80;76.70
43346;DHT22;28937;51.160;4.146;2023-03-01T03:03:13;6.80;76.70
43346;DHT22;28937;51.160;4.146;2023-03-01T03:05:40;6.80;76.90
43346;DHT22;28937;51.160;4.146;2023-03-01T03:08:06;6.80;77.60
43346;DHT22;28937;51.160;4.146;2023-03-01T03:10:38;6.80;77.10
43346;DHT22;28937;51.160;4.146;2023-03-01T03:13:08;6.80;77.30
43346;DHT22;28937;51.160;4.146;2023-03-01T03:15:34;6.80;77.20
43346;DHT22;28937;51.160;4.146;2023-03-01T03:18:03;6.80;77.30
43346;DHT22;28937;51.160;4.146;2023-03-01T03:20:29;6.70;77.40
43346;DHT22;28937;51.160;4.146;2023-03-01T03:22:57;6.70;77.40
43346;DHT22;28937;51.160;4.146;2023-03-01T03:25:27;6.70;77.50
43346;DHT22;28937;51.160;4.146;2023-03-01T03:27:53;6.70;77.60
43346;DHT22;28937;51.160;4.146;2023-03-01T03:30:24;6.70;77.90
43346;DHT22;28937;51.160;4.146;2023-03-01T03:32:49;6.70;78.00
43346;DHT22;28937;51.160;4.146;2023-03-01T03:35:27;6.70;77.90
43346;DHT22;28937;51.160;4.146;2023-03-01T03:37:55;6.60;78.20
43346;DHT22;28937;51.160;4.146;2023-03-01T03:40:29;6.60;78.20
43346;DHT22;28937;51.160;4.146;2023-03-01T03:42:55;6.60;78.30
43346;DHT22;28937;51.160;4.146;2023-03-01T03:45:21;6.60;78.50
43346;DHT22;28937;51.160;4.146;2023-03-01T03:47:47;6.60;78.70
43346;DHT22;28937;51.160;4.146;2023-03-01T03:50:14;6.60;78.80
43346;DHT22;28937;51.160;4.146;2023-03-01T03:52:41;6.60;78.90
43346;DHT22;28937;51.160;4.146;2023-03-01T03:55:08;6.50;79.00
43346;DHT22;28937;51.160;4.146;2023-03-01T03:57:46;6.50;79.00
43346;DHT22;28937;51.160;4.146;2023-03-01T04:00:21;6.50;79.20
43346;DHT22;28937;51.160;4.146;2023-03-01T04:02:49;6.50;79.30
43346;DHT22;28937;51.160;4.146;2023-03-01T04:05:17;6.50;79.30
43346;DHT22;28937;51.160;4.146;2023-03-01T04:07:43;6.50;79.50
43346;DHT22;28937;51.160;4.146;2023-03-01T04:10:12;6.50;79.60
43346;DHT22;28937;51.160;4.146;2023-03-01T04:12:38;6.50;79.60
43346;DHT22;28937;51.160;4.146;2023-03-01T04:15:06;6.50;79.80
43346;DHT22;28937;51.160;4.146;2023-03-01T04:17:46;6.40;79.70
43346;DHT22;28937;51.160;4.146;2023-03-01T04:20:17;6.40;79.80
43346;DHT22;28937;51.160;4.146;2023-03-01T04:22:44;6.40;79.80
43346;DHT22;28937;51.160;4.146;2023-03-01T04:25:13;6.40;79.90
43346;DHT22;28937;51.160;4.146;2023-03-01T04:27:40;6.40;80.00
43346;DHT22;28937;51.160;4.146;2023-03-01T04:30:06;6.40;80.00
43346;DHT22;28937;51.160;4.146;2023-03-01T04:32:32;6.40;80.00
43346;DHT22;28937;51.160;4.146;2023-03-01T04:34:58;6.40;80.10
43346;DHT22;28937;51.160;4.146;2023-03-01T04:37:24;6.40;80.20
43346;DHT22;28937;51.160;4.146;2023-03-01T04:39:50;6.30;80.20
43346;DHT22;28937;51.160;4.146;2023-03-01T04:42:16;6.30;80.20
43346;DHT22;28937;51.160;4.146;2023-03-01T04:44:44;6.30;80.20
43346;DHT22;28937;51.160;4.146;2023-03-01T04:47:10;6.30;80.20
43346;DHT22;28937;51.160;4.146;2023-03-01T04:49:36;6.30;80.20
43346;DHT22;28937;51.160;4.146;2023-03-01T04:52:02;6.30;80.30
43346;DHT22;28937;51.160;4.146;2023-03-01T04:54:29;6.30;80.40
43346;DHT22;28937;51.160;4.146;2023-03-01T04:56:54;6.30;80.30
43346;DHT22;28937;51.160;4.146;2023-03-01T04:59:20;6.30;80.20
43346;DHT22;28937;51.160;4.146;2023-03-01T05:01:50;6.20;80.20
43346;DHT22;28937;51.160;4.146;2023-03-01T05:04:15;6.20;80.40
43346;DHT22;28937;51.160;4.146;2023-03-01T05:06:41;6.20;80.30
43346;DHT22;28937;51.160;4.146;2023-03-01T05:09:07;6.20;80.00
43346;DHT22;28937;51.160;4.146;2023-03-01T05:11:32;6.10;79.90
43346;DHT22;28937;51.160;4.146;2023-03-01T05:14:02;6.10;80.10
43346;DHT22;28937;51.160;4.146;2023-03-01T05:16:28;6.10;79.90
43346;DHT22;28937;51.160;4.146;2023-03-01T05:18:55;6.10;79.70
43346;DHT22;28937;51.160;4.146;2023-03-01T05:21:22;6.10;79.80
43346;DHT22;28937;51.160;4.146;2023-03-01T05:23:48;6.10;79.80
43346;DHT22;28937;51.160;4.146;2023-03-01T05:26:15;6.10;79.60
43346;DHT22;28937;51.160;4.146;2023-03-01T05:28:41;6.10;79.60
43346;DHT22;28937;51.160;4.146;2023-03-01T05:31:07;6.00;79.50
43346;DHT22;28937;51.160;4.146;2023-03-01T05:33:39;6.00;79.60
43346;DHT22;28937;51.160;4.146;2023-03-01T05:36:06;6.00;80.00
43346;DHT22;28937;51.160;4.146;2023-03-01T05:38:33;6.00;82.00
43346;DHT22;28937;51.160;4.146;2023-03-01T05:40:59;6.10;81.60
43346;DHT22;28937;51.160;4.146;2023-03-01T05:43:25;6.10;81.70
43346;DHT22;28937;51.160;4.146;2023-03-01T05:45:51;6.10;81.60
43346;DHT22;28937;51.160;4.146;2023-03-01T05:48:16;6.20;81.20
43346;DHT22;28937;51.160;4.146;2023-03-01T05:50:45;6.20;81.00
43346;DHT22;28937;51.160;4.146;2023-03-01T05:53:17;6.20;81.00
43346;DHT22;28937;51.160;4.146;2023-03-01T05:55:44;6.30;80.70
43346;DHT22;28937;51.160;4.146;2023-03-01T05:58:14;6.20;80.80
43346;DHT22;28937;51.160;4.146;2023-03-01T06:00:40;6.30;80.90
43346;DHT22;28937;51.160;4.146;2023-03-01T06:03:06;6.30;80.60
43346;DHT22;28937;51.160;4.146;2023-03-01T06:05:31;6.30;80.70
43346;DHT22;28937;51.160;4.146;2023-03-01T06:08:01;6.30;80.70
43346;DHT22;28937;51.160;4.146;2023-03-01T06:10:26;6.20;78.80
43346;DHT22;28937;51.160;4.146;2023-03-01T06:12:53;6.20;78.60
43346;DHT22;28937;51.160;4.146;2023-03-01T06:15:19;6.10;78.50
43346;DHT22;28937;51.160;4.146;2023-03-01T06:17:45;6.10;78.60
43346;DHT22;28937;51.160;4.146;2023-03-01T06:20:20;6.00;78.60
43346;DHT22;28937;51.160;4.146;2023-03-01T06:22:46;6.00;78.70
43346;DHT22;28937;51.160;4.146;2023-03-01T06:25:14;5.90;78.80
43346;DHT22;28937;51.160;4.146;2023-03-01T06:27:41;5.90;78.90
43346;DHT22;28937;51.160;4.146;2023-03-01T06:30:09;5.90;79.00
43346;DHT22;28937;51.160;4.146;2023-03-01T06:32:36;5.90;79.00
43346;DHT22;28937;51.160;4.146;2023-03-01T06:35:03;5.90;78.90
43346;DHT22;28937;51.160;4.146;2023-03-01T06:37:28;5.80;78.70
43346;DHT22;28937;51.160;4.146;2023-03-01T06:39:54;5.80;78.80
43346;DHT22;28937;51.160;4.146;2023-03-01T06:42:20;5.70;78.90
43346;DHT22;28937;51.160;4.146;2023-03-01T06:44:45;5.70;79.30
43346;DHT22;28937;51.160;4.146;2023-03-01T06:47:11;5.70;79.00
43346;DHT22;28937;51.160;4.146;2023-03-01T06:49:37;5.70;79.40
43346;DHT22;28937;51.160;4.146;2023-03-01T06:52:02;5.70;79.50
43346;DHT22;28937;51.160;4.146;2023-03-01T06:54:28;5.70;79.10
43346;DHT22;28937;51.160;4.146;2023-03-01T06:56:54;5.70;79.10
43346;DHT22;28937;51.160;4.146;2023-03-01T06:59:20;5.70;78.90
43346;DHT22;28937;51.160;4.146;2023-03-01T07:01:45;5.70;79.00
43346;DHT22;28937;51.160;4.146;2023-03-01T07:04:12;5.70;78.90
43346;DHT22;28937;51.160;4.146;2023-03-01T07:06:38;5.70;78.90
43346;DHT22;28937;51.160;4.146;2023-03-01T07:09:04;5.60;79.70
43346;DHT22;28937;51.160;4.146;2023-03-01T07:11:29;5.70;79.20
43346;DHT22;28937;51.160;4.146;2023-03-01T07:13:55;5.70;78.90
43346;DHT22;28937;51.160;4.146;2023-03-01T07:16:21;5.70;79.20
43346;DHT22;28937;51.160;4.146;2023-03-01T07:18:47;5.50;80.90
43346;DHT22;28937;51.160;4.146;2023-03-01T07:21:14;5.50;80.00
43346;DHT22;28937;51.160;4.146;2023-03-01T07:23:40;5.50;79.70
43346;DHT22;28937;51.160;4.146;2023-03-01T07:26:06;5.60;80.30
43346;DHT22;28937;51.160;4.146;2023-03-01T07:28:31;5.50;80.50
43346;DHT22;28937;51.160;4.146;2023-03-01T07:31:04;5.60;80.70
43346;DHT22;28937;51.160;4.146;2023-03-01T07:33:31;5.60;80.60
43346;DHT22;28937;51.160;4.146;2023-03-01T07:36:00;5.60;80.20
43346;DHT22;28937;51.160;4.146;2023-03-01T07:38:28;5.70;80.30
43346;DHT22;28937;51.160;4.146;2023-03-01T07:40:57;5.70;80.20
43346;DHT22;28937;51.160;4.146;2023-03-01T07:43:23;5.70;80.10
43346;DHT22;28937;51.160;4.146;2023-03-01T07:45:48;5.80;80.00
43346;DHT22;28937;51.160;4.146;2023-03-01T07:48:14;5.80;79.80
43346;DHT22;28937;51.160;4.146;2023-03-01T07:50:39;5.80;79.90
43346;DHT22;28937;51.160;4.146;2023-03-01T07:53:05;5.90;79.80
43346;DHT22;28937;51.160;4.146;2023-03-01T07:55:30;5.90;79.60
43346;DHT22;28937;51.160;4.146;2023-03-01T07:57:56;5.90;79.60
43346;DHT22;28937;51.160;4.146;2023-03-01T08:00:21;6.00;79.60
43346;DHT22;28937;51.160;4.146;2023-03-01T08:02:47;6.00;79.50
43346;DHT22;28937;51.160;4.146;2023-03-01T08:05:13;6.00;79.30
43346;DHT22;28937;51.160;4.146;2023-03-01T08:07:38;6.10;80.10
43346;DHT22;28937;51.160;4.146;2023-03-01T08:10:04;6.00;79.10
43346;DHT22;28937;51.160;4.146;2023-03-01T08:12:30;6.10;79.30
43346;DHT22;28937;51.160;4.146;2023-03-01T08:14:55;6.20;78.20
43346;DHT22;28937;51.160;4.146;2023-03-01T08:17:22;6.20;77.80
43346;DHT22;28937;51.160;4.146;2023-03-01T08:19:48;6.20;77.30
43346;DHT22;28937;51.160;4.146;2023-03-01T08:22:13;6.20;77.40
43346;DHT22;28937;51.160;4.146;2023-03-01T08:24:39;6.20;77.30
43346;DHT22;28937;51.160;4.146;2023-03-01T08:27:04;6.20;77.40
43346;DHT22;28937;51.160;4.146;2023-03-01T08:29:31;6.30;77.10
43346;DHT22;28937;51.160;4.146;2023-03-01T08:31:57;6.40;75.80
43346;DHT22;28937;51.160;4.146;2023-03-01T08:34:22;6.30;76.30
43346;DHT22;28937;51.160;4.146;2023-03-01T08:36:48;6.30;76.10
43346;DHT22;28937;51.160;4.146;2023-03-01T08:39:16;6.40;75.70
43346;DHT22;28937;51.160;4.146;2023-03-01T08:41:43;6.40;75.30
43346;DHT22;28937;51.160;4.146;2023-03-01T08:44:11;6.40;75.60
43346;DHT22;28937;51.160;4.146;2023-03-01T08:46:39;6.40;75.60
43346;DHT22;28937;51.160;4.146;2023-03-01T08:49:11;6.40;75.70
43346;DHT22;28937;51.160;4.146;2023-03-01T08:51:37;6.50;75.30
43346;DHT22;28937;51.160;4.146;2023-03-01T08:54:09;6.40;75.70
43346;DHT22;28937;51.160;4.146;2023-03-01T08:56:35;6.60;74.80
43346;DHT22;28937;51.160;4.146;2023-03-01T08:59:01;6.60;74.90
43346;DHT22;28937;51.160;4.146;2023-03-01T09:01:26;6.60;74.60
43346;DHT22;28937;51.160;4.146;2023-03-01T09:03:52;6.50;74.80
43346;DHT22;28937;51.160;4.146;2023-03-01T09:06:17;6.50;74.80
43346;DHT22;28937;51.160;4.146;2023-03-01T09:08:45;6.50;75.20
43346;DHT22;28937;51.160;4.146;2023-03-01T09:11:15;6.60;74.20
43346;DHT22;28937;51.160;4.146;2023-03-01T09:13:42;6.60;74.00
43346;DHT22;28937;51.160;4.146;2023-03-01T09:16:08;6.60;73.80
43346;DHT22;28937;51.160;4.146;2023-03-01T09:18:34;6.60;74.20
43346;DHT22;28937;51.160;4.146;2023-03-01T09:21:20;6.70;73.20
43346;DHT22;28937;51.160;4.146;2023-03-01T09:23:47;6.70;73.30
43346;DHT22;28937;51.160;4.146;2023-03-01T09:26:16;6.60;73.20
43346;DHT22;28937;51.160;4.146;2023-03-01T09:28:44;6.70;73.00
43346;DHT22;28937;51.160;4.146;2023-03-01T09:31:11;6.70;73.10
43346;DHT22;28937;51.160;4.146;2023-03-01T09:33:39;6.60;73.60
43346;DHT22;28937;51.160;4.146;2023-03-01T09:36:07;6.60;73.50
43346;DHT22;28937;51.160;4.146;2023-03-01T09:38:33;6.60;73.00
43346;DHT22;28937;51.160;4.146;2023-03-01T09:41:00;6.70;72.90
43346;DHT22;28937;51.160;4.146;2023-03-01T09:43:50;6.70;72.80
43346;DHT22;28937;51.160;4.146;2023-03-01T09:46:22;6.80;72.40
43346;DHT22;28937;51.160;4.146;2023-03-01T09:48:52;6.80;72.40
43346;DHT22;28937;51.160;4.146;2023-03-01T09:51:31;6.70;72.60
43346;DHT22;28937;51.160;4.146;2023-03-01T09:53:57;6.70;73.00
43346;DHT22;28937;51.160;4.146;2023-03-01T09:56:33;6.80;72.60
43346;DHT22;28937;51.160;4.146;2023-03-01T09:59:40;6.80;71.90
43346;DHT22;28937;51.160;4.146;2023-03-01T10:02:39;6.80;72.40
43346;DHT22;28937;51.160;4.146;2023-03-01T10:08:24;6.90;71.00
43346;DHT22;28937;51.160;4.146;2023-03-01T10:10:51;6.80;71.40
43346;DHT22;28937;51.160;4.146;2023-03-01T10:16:26;6.80;70.50
43346;DHT22;28937;51.160;4.146;2023-03-01T10:18:59;6.80;71.00
43346;DHT22;28937;51.160;4.146;2023-03-01T10:21:27;6.80;71.00
43346;DHT22;28937;51.160;4.146;2023-03-01T10:23:53;6.80;70.50
43346;DHT22;28937;51.160;4.146;2023-03-01T10:26:47;6.80;71.00
43346;DHT22;28937;51.160;4.146;2023-03-01T10:29:10;6.90;71.00
43346;DHT22;28937;51.160;4.146;2023-03-01T10:34:30;6.80;71.60
43346;DHT22;28937;51.160;4.146;2023-03-01T10:37:08;6.90;70.70
43346;DHT22;28937;51.160;4.146;2023-03-01T10:39:35;6.90;71.10
43346;DHT22;28937;51.160;4.146;2023-03-01T10:42:06;7.00;70.10
43346;DHT22;28937;51.160;4.146;2023-03-01T10:44:46;7.00;70.20
43346;DHT22;28937;51.160;4.146;2023-03-01T10:47:18;7.00;69.80
43346;DHT22;28937;51.160;4.146;2023-03-01T10:50:05;7.00;70.70
43346;DHT22;28937;51.160;4.146;2023-03-01T10:52:41;7.00;70.10
43346;DHT22;28937;51.160;4.146;2023-03-01T10:57:41;7.00;70.50
43346;DHT22;28937;51.160;4.146;2023-03-01T11:00:18;7.10;70.20
43346;DHT22;28937;51.160;4.146;2023-03-01T11:02:48;7.00;70.50
43346;DHT22;28937;51.160;4.146;2023-03-01T11:07:57;7.10;70.60
43346;DHT22;28937;51.160;4.146;2023-03-01T11:10:34;7.20;70.50
43346;DHT22;28937;51.160;4.146;2023-03-01T11:13:19;7.10;69.60
43346;DHT22;28937;51.160;4.146;2023-03-01T11:15:59;7.10;70.70
43346;DHT22;28937;51.160;4.146;2023-03-01T11:18:26;7.10;71.10
43346;DHT22;28937;51.160;4.146;2023-03-01T11:20:53;7.20;70.60
43346;DHT22;28937;51.160;4.146;2023-03-01T11:23:21;7.30;69.80
43346;DHT22;28937;51.160;4.146;2023-03-01T11:26:01;7.20;70.40
43346;DHT22;28937;51.160;4.146;2023-03-01T11:28:29;7.20;70.60
43346;DHT22;28937;51.160;4.146;2023-03-01T11:31:09;7.20;70.20
43346;DHT22;28937;51.160;4.146;2023-03-01T11:34:06;7.30;70.20
43346;DHT22;28937;51.160;4.146;2023-03-01T11:36:42;7.30;70.00
43346;DHT22;28937;51.160;4.146;2023-03-01T11:39:31;7.30;70.30
43346;DHT22;28937;51.160;4.146;2023-03-01T11:42:20;7.30;70.10
43346;DHT22;28937;51.160;4.146;2023-03-01T11:44:52;7.30;70.40
43346;DHT22;28937;51.160;4.146;2023-03-01T11:50:19;7.30;70.10
43346;DHT22;28937;51.160;4.146;2023-03-01T11:52:52;7.30;70.10
43346;DHT22;28937;51.160;4.146;2023-03-01T11:56:05;7.30;70.30
43346;DHT22;28937;51.160;4.146;2023-03-01T11:58:41;7.40;69.90
43346;DHT22;28937;51.160;4.146;2023-03-01T12:01:26;7.40;69.60
43346;DHT22;28937;51.160;4.146;2023-03-01T12:14:48;7.50;69.40
43346;DHT22;28937;51.160;4.146;2023-03-01T12:17:26;7.50;69.90
43346;DHT22;28937;51.160;4.146;2023-03-01T12:28:53;7.60;70.10
43346;DHT22;28937;51.160;4.146;2023-03-01T12:36:39;7.70;70.20
43346;DHT22;28937;51.160;4.146;2023-03-01T12:47:38;7.80;71.70
43346;DHT22;28937;51.160;4.146;2023-03-01T12:50:20;7.80;71.20
43346;DHT22;28937;51.160;4.146;2023-03-01T12:52:56;7.90;71.80
43346;DHT22;28937;51.160;4.146;2023-03-01T12:55:40;7.90;70.40
43346;DHT22;28937;51.160;4.146;2023-03-01T13:01:34;8.00;73.40
43346;DHT22;28937;51.160;4.146;2023-03-01T13:04:18;8.00;72.30
43346;DHT22;28937;51.160;4.146;2023-03-01T13:10:01;8.10;75.10
43346;DHT22;28937;51.160;4.146;2023-03-01T13:12:47;8.10;72.20
43346;DHT22;28937;51.160;4.146;2023-03-01T13:17:56;8.20;71.10
43346;DHT22;28937;51.160;4.146;2023-03-01T13:20:47;8.30;69.80
43346;DHT22;28937;51.160;4.146;2023-03-01T13:26:12;8.30;70.20
43346;DHT22;28937;51.160;4.146;2023-03-01T13:28:40;8.30;69.70
43346;DHT22;28937;51.160;4.146;2023-03-01T13:31:09;8.30;69.00
43346;DHT22;28937;51.160;4.146;2023-03-01T13:33:50;8.40;69.30
43346;DHT22;28937;51.160;4.146;2023-03-01T13:44:21;8.40;71.20
43346;DHT22;28937;51.160;4.146;2023-03-01T13:46:47;8.40;71.50
43346;DHT22;28937;51.160;4.146;2023-03-01T13:49:18;8.50;70.30
43346;DHT22;28937;51.160;4.146;2023-03-01T13:51:47;8.50;69.60
43346;DHT22;28937;51.160;4.146;2023-03-01T13:54:15;8.60;69.70
43346;DHT22;28937;51.160;4.146;2023-03-01T13:56:42;8.60;69.80
43346;DHT22;28937;51.160;4.146;2023-03-01T13:59:18;8.60;70.30
43346;DHT22;28937;51.160;4.146;2023-03-01T14:01:44;8.70;69.20
43346;DHT22;28937;51.160;4.146;2023-03-01T14:04:23;8.60;69.40
43346;DHT22;28937;51.160;4.146;2023-03-01T14:06:49;8.70;69.10
43346;DHT22;28937;51.160;4.146;2023-03-01T14:09:24;8.60;69.70
43346;DHT22;28937;51.160;4.146;2023-03-01T14:15:04;8.80;70.10
43346;DHT22;28937;51.160;4.146;2023-03-01T14:20:25;8.80;69.90
43346;DHT22;28937;51.160;4.146;2023-03-01T14:22:56;8.80;68.90
43346;DHT22;28937;51.160;4.146;2023-03-01T14:25:49;8.80;68.90
43346;DHT22;28937;51.160;4.146;2023-03-01T14:28:27;8.90;68.80
43346;DHT22;28937;51.160;4.146;2023-03-01T14:30:56;8.90;69.00
43346;DHT22;28937;51.160;4.146;2023-03-01T14:33:28;8.90;69.80
43346;DHT22;28937;51.160;4.146;2023-03-01T14:36:09;8.90;69.50
43346;DHT22;28937;51.160;4.146;2023-03-01T14:38:43;8.90;68.70
43346;DHT22;28937;51.160;4.146;2023-03-01T14:41:20;9.10;67.50
43346;DHT22;28937;51.160;4.146;2023-03-01T14:43:56;9.10;67.10
43346;DHT22;28937;51.160;4.146;2023-03-01T14:46:28;9.10;67.50
43346;DHT22;28937;51.160;4.146;2023-03-01T14:49:31;9.00;69.30
43346;DHT22;28937;51.160;4.146;2023-03-01T14:52:06;9.10;67.40
43346;DHT22;28937;51.160;4.146;2023-03-01T14:54:48;9.10;68.20
43346;DHT22;28937;51.160;4.146;2023-03-01T14:57:17;9.10;68.40
43346;DHT22;28937;51.160;4.146;2023-03-01T14:59:43;9.10;67.10
43346;DHT22;28937;51.160;4.146;2023-03-01T15:02:16;9.10;67.40
43346;DHT22;28937;51.160;4.146;2023-03-01T15:04:51;9.10;67.80
43346;DHT22;28937;51.160;4.146;2023-03-01T15:07:16;9.10;67.20
43346;DHT22;28937;51.160;4.146;2023-03-01T15:09:43;9.10;67.80
43346;DHT22;28937;51.160;4.146;2023-03-01T15:14:52;9.20;68.30
43346;DHT22;28937;51.160;4.146;2023-03-01T15:17:38;9.10;68.20
43346;DHT22;28937;51.160;4.146;2023-03-01T15:20:13;9.20;68.20
43346;DHT22;28937;51.160;4.146;2023-03-01T15:22:44;9.20;68.20
43346;DHT22;28937;51.160;4.146;2023-03-01T15:25:22;9.20;68.60
43346;DHT22;28937;51.160;4.146;2023-03-01T15:27:50;9.30;68.30
43346;DHT22;28937;51.160;4.146;2023-03-01T15:30:26;9.30;67.70
43346;DHT22;28937;51.160;4.146;2023-03-01T15:36:29;9.30;67.50
43346;DHT22;28937;51.160;4.146;2023-03-01T15:38:55;9.30;66.40
43346;DHT22;28937;51.160;4.146;2023-03-01T15:41:37;9.30;66.50
43346;DHT22;28937;51.160;4.146;2023-03-01T15:44:17;9.20;66.80
43346;DHT22;28937;51.160;4.146;2023-03-01T15:46:46;9.20;66.90
43346;DHT22;28937;51.160;4.146;2023-03-01T15:51:55;9.30;67.50
43346;DHT22;28937;51.160;4.146;2023-03-01T15:54:23;9.30;67.50
43346;DHT22;28937;51.160;4.146;2023-03-01T15:56:50;9.30;67.20
43346;DHT22;28937;51.160;4.146;2023-03-01T15:59:16;9.40;67.40
43346;DHT22;28937;51.160;4.146;2023-03-01T16:01:43;9.40;67.40
43346;DHT22;28937;51.160;4.146;2023-03-01T16:04:13;9.40;67.50
43346;DHT22;28937;51.160;4.146;2023-03-01T16:06:51;9.40;67.60
43346;DHT22;28937;51.160;4.146;2023-03-01T16:09:24;9.30;67.70
43346;DHT22;28937;51.160;4.146;2023-03-01T16:11:51;9.30;67.50
43346;DHT22;28937;51.160;4.146;2023-03-01T16:14:17;9.40;67.40
43346;DHT22;28937;51.160;4.146;2023-03-01T16:16:44;9.40;67.60
43346;DHT22;28937;51.160;4.146;2023-03-01T16:19:10;9.40;67.10
43346;DHT22;28937;51.160;4.146;2023-03-01T16:21:36;9.40;67.00
43346;DHT22;28937;51.160;4.146;2023-03-01T16:24:02;9.40;67.20
43346;DHT22;28937;51.160;4.146;2023-03-01T16:26:28;9.40;67.40
43346;DHT22;28937;51.160;4.146;2023-03-01T16:28:55;9.30;67.70
43346;DHT22;28937;51.160;4.146;2023-03-01T16:31:22;9.30;67.80
43346;DHT22;28937;51.160;4.146;2023-03-01T16:33:48;9.30;67.70
43346;DHT22;28937;51.160;4.146;2023-03-01T16:36:19;9.30;67.90
43346;DHT22;28937;51.160;4.146;2023-03-01T16:38:45;9.40;67.90
43346;DHT22;28937;51.160;4.146;2023-03-01T16:41:16;9.40;67.70
43346;DHT22;28937;51.160;4.146;2023-03-01T16:43:42;9.40;68.00
43346;DHT22;28937;51.160;4.146;2023-03-01T16:46:19;9.30;68.20
43346;DHT22;28937;51.160;4.146;2023-03-01T16:48:45;9.40;67.60
43346;DHT22;28937;51.160;4.146;2023-03-01T16:51:11;9.40;67.60
43346;DHT22;28937;51.160;4.146;2023-03-01T16:53:37;9.50;67.40
43346;DHT22;28937;51.160;4.146;2023-03-01T16:56:06;9.50;67.50
43346;DHT22;28937;51.160;4.146;2023-03-01T16:58:33;9.40;67.60
43346;DHT22;28937;51.160;4.146;2023-03-01T17:01:04;9.40;68.30
43346;DHT22;28937;51.160;4.146;2023-03-01T17:03:30;9.50;68.10
43346;DHT22;28937;51.160;4.146;2023-03-01T17:05:56;9.40;67.90
43346;DHT22;28937;51.160;4.146;2023-03-01T17:08:22;9.40;68.40
43346;DHT22;28937;51.160;4.146;2023-03-01T17:10:47;9.40;67.80
43346;DHT22;28937;51.160;4.146;2023-03-01T17:13:13;9.40;67.70
43346;DHT22;28937;51.160;4.146;2023-03-01T17:15:40;9.40;67.80
43346;DHT22;28937;51.160;4.146;2023-03-01T17:18:07;9.40;67.80
43346;DHT22;28937;51.160;4.146;2023-03-01T17:20:33;9.40;68.10
43346;DHT22;28937;51.160;4.146;2023-03-01T17:22:59;9.40;67.90
43346;DHT22;28937;51.160;4.146;2023-03-01T17:25:24;9.40;67.60
43346;DHT22;28937;51.160;4.146;2023-03-01T17:27:50;9.40;67.50
43346;DHT22;28937;51.160;4.146;2023-03-01T17:30:16;9.40;67.20
43346;DHT22;28937;51.160;4.146;2023-03-01T17:32:42;9.50;67.00
43346;DHT22;28937;51.160;4.146;2023-03-01T17:35:08;9.40;67.30
43346;DHT22;28937;51.160;4.146;2023-03-01T17:37:36;9.40;67.00
43346;DHT22;28937;51.160;4.146;2023-03-01T17:40:04;9.40;67.00
43346;DHT22;28937;51.160;4.146;2023-03-01T17:42:30;9.40;67.20